sensor_id;sensor_type;location;lat;lon;timestamp;pressure;altitude;pressure_sealevel;temperature;humidity
63019;BME280;49105;46.046;10.760;2023-05-29T00:01:20;95693.91;;;15.76;66.76
63019;BME280;49105;46.046;10.760;2023-05-29T00:03:55;95685.75;;;15.72;66.94
63019;BME280;49105;46.046;10.760;2023-05-29T00:06:26;95688.34;;;15.63;67.38
63019;BME280;49105;46.046;10.760;2023-05-29T00:08:51;95698.50;;;15.61;67.57
63019;BME280;49105;46.046;10.760;2023-05-29T00:11:17;95696.38;;;15.50;67.95
63019;BME280;49105;46.046;10.760;2023-05-29T00:13:42;95695.03;;;15.38;68.41
63019;BME280;49105;46.046;10.760;2023-05-29T00:16:14;95693.44;;;15.37;69.04
63019;BME280;49105;46.046;10.760;2023-05-29T00:18:40;95699.88;;;15.36;69.04
63019;BME280;49105;46.046;10.760;2023-05-29T00:21:16;95699.28;;;15.39;69.21
63019;BME280;49105;46.046;10.760;2023-05-29T00:23:50;95698.56;;;15.48;68.84
63019;BME280;49105;46.046;10.760;2023-05-29T00:26:22;95696.09;;;15.51;68.62
63019;BME280;49105;46.046;10.760;2023-05-29T00:28:53;95694.69;;;15.54;68.25
63019;BME280;49105;46.046;10.760;2023-05-29T00:34:22;95695.63;;;15.35;68.77
63019;BME280;49105;46.046;10.760;2023-05-29T00:36:48;95702.16;;;15.29;68.91
63019;BME280;49105;46.046;10.760;2023-05-29T00:39:14;95689.69;;;15.38;68.76
63019;BME280;49105;46.046;10.760;2023-05-29T00:41:46;95692.25;;;15.44;68.53
63019;BME280;49105;46.046;10.760;2023-05-29T00:44:19;95693.69;;;15.50;68.35
63019;BME280;49105;46.046;10.760;2023-05-29T00:46:53;95694.22;;;15.52;68.50
63019;BME280;49105;46.046;10.760;2023-05-29T00:49:27;95696.38;;;15.50;68.69
63019;BME280;49105;46.046;10.760;2023-05-29T00:52:05;95698.78;;;15.37;69.48
63019;BME280;49105;46.046;10.760;2023-05-29T00:54:32;95684.97;;;15.35;69.58
63019;BME280;49105;46.046;10.760;2023-05-29T00:57:07;95693.69;;;15.27;69.42
63019;BME280;49105;46.046;10.760;2023-05-29T00:59:51;95695.38;;;15.23;69.54
63019;BME280;49105;46.046;10.760;2023-05-29T01:02:16;95701.19;;;15.25;69.53
63019;BME280;49105;46.046;10.760;2023-05-29T01:04:49;95701.00;;;15.22;69.48
63019;BME280;49105;46.046;10.760;2023-05-29T01:07:21;95697.41;;;15.26;69.54
63019;BME280;49105;46.046;10.760;2023-05-29T01:09:52;95700.09;;;15.26;69.14
63019;BME280;49105;46.046;10.760;2023-05-29T01:15:24;95692.28;;;15.30;69.04
63019;BME280;49105;46.046;10.760;2023-05-29T01:18:08;95694.28;;;15.24;69.12
63019;BME280;49105;46.046;10.760;2023-05-29T01:20:52;95693.50;;;15.24;69.24
63019;BME280;49105;46.046;10.760;2023-05-29T01:31:29;95689.97;;;15.14;69.56
63019;BME280;49105;46.046;10.760;2023-05-29T01:34:01;95684.84;;;15.04;69.67
63019;BME280;49105;46.046;10.760;2023-05-29T01:36:32;95680.09;;;15.01;69.75
63019;BME280;49105;46.046;10.760;2023-05-29T01:39:04;95678.84;;;14.99;70.23
63019;BME280;49105;46.046;10.760;2023-05-29T01:41:39;95680.59;;;15.03;70.12
63019;BME280;49105;46.046;10.760;2023-05-29T01:44:05;95677.03;;;15.08;69.87
63019;BME280;49105;46.046;10.760;2023-05-29T01:46:42;95679.13;;;15.11;69.81
63019;BME280;49105;46.046;10.760;2023-05-29T01:49:17;95668.25;;;15.07;70.03
63019;BME280;49105;46.046;10.760;2023-05-29T01:51:52;95664.94;;;15.02;69.85
63019;BME280;49105;46.046;10.760;2023-05-29T01:54:18;95664.16;;;14.87;70.13
63019;BME280;49105;46.046;10.760;2023-05-29T01:56:44;95672.94;;;14.88;70.22
63019;BME280;49105;46.046;10.760;2023-05-29T02:02:11;95666.69;;;14.93;69.80
63019;BME280;49105;46.046;10.760;2023-05-29T02:04:37;95659.59;;;14.88;69.67
63019;BME280;49105;46.046;10.760;2023-05-29T02:07:12;95665.25;;;14.86;69.72
63019;BME280;49105;46.046;10.760;2023-05-29T02:09:38;95662.56;;;14.86;69.76
63019;BME280;49105;46.046;10.760;2023-05-29T02:12:10;95661.78;;;14.86;69.55
63019;BME280;49105;46.046;10.760;2023-05-29T02:14:36;95660.19;;;14.85;69.46
63019;BME280;49105;46.046;10.760;2023-05-29T02:17:11;95653.72;;;14.77;69.56
63019;BME280;49105;46.046;10.760;2023-05-29T02:19:45;95650.75;;;14.65;70.10
63019;BME280;49105;46.046;10.760;2023-05-29T02:22:17;95653.50;;;14.60;69.62
63019;BME280;49105;46.046;10.760;2023-05-29T02:24:52;95651.84;;;14.50;70.09
63019;BME280;49105;46.046;10.760;2023-05-29T02:27:18;95653.72;;;14.36;70.60
63019;BME280;49105;46.046;10.760;2023-05-29T02:29:55;95656.66;;;14.34;70.65
63019;BME280;49105;46.046;10.760;2023-05-29T02:32:27;95654.50;;;14.36;70.70
63019;BME280;49105;46.046;10.760;2023-05-29T02:34:59;95659.81;;;14.36;70.68
63019;BME280;49105;46.046;10.760;2023-05-29T02:37:28;95661.38;;;14.37;70.28
63019;BME280;49105;46.046;10.760;2023-05-29T02:39:53;95666.72;;;14.37;70.51
63019;BME280;49105;46.046;10.760;2023-05-29T02:42:18;95662.97;;;14.38;70.14
63019;BME280;49105;46.046;10.760;2023-05-29T02:44:50;95669.38;;;14.37;70.27
63019;BME280;49105;46.046;10.760;2023-05-29T02:47:24;95677.75;;;14.17;70.35
63019;BME280;49105;46.046;10.760;2023-05-29T02:49:56;95676.22;;;14.11;70.79
63019;BME280;49105;46.046;10.760;2023-05-29T02:52:33;95663.75;;;14.11;71.08
63019;BME280;49105;46.046;10.760;2023-05-29T02:55:08;95664.91;;;14.05;70.84
63019;BME280;49105;46.046;10.760;2023-05-29T02:57:33;95661.34;;;14.10;70.87
63019;BME280;49105;46.046;10.760;2023-05-29T03:00:05;95668.06;;;14.07;70.71
63019;BME280;49105;46.046;10.760;2023-05-29T03:02:32;95664.59;;;14.07;70.94
63019;BME280;49105;46.046;10.760;2023-05-29T03:05:07;95662.53;;;14.04;70.63
63019;BME280;49105;46.046;10.760;2023-05-29T03:07:38;95663.59;;;14.03;70.63
63019;BME280;49105;46.046;10.760;2023-05-29T03:10:10;95663.22;;;13.96;70.77
63019;BME280;49105;46.046;10.760;2023-05-29T03:12:42;95657.38;;;13.94;71.15
63019;BME280;49105;46.046;10.760;2023-05-29T03:15:07;95662.72;;;13.94;70.70
63019;BME280;49105;46.046;10.760;2023-05-29T03:17:38;95661.91;;;13.93;70.53
63019;BME280;49105;46.046;10.760;2023-05-29T03:20:05;95670.78;;;13.88;70.89
63019;BME280;49105;46.046;10.760;2023-05-29T03:22:37;95673.94;;;13.90;71.04
63019;BME280;49105;46.046;10.760;2023-05-29T03:25:02;95678.09;;;13.97;70.66
63019;BME280;49105;46.046;10.760;2023-05-29T03:27:34;95670.59;;;13.99;70.32
63019;BME280;49105;46.046;10.760;2023-05-29T03:30:06;95667.94;;;13.99;70.19
63019;BME280;49105;46.046;10.760;2023-05-29T03:32:40;95677.50;;;14.00;70.64
63019;BME280;49105;46.046;10.760;2023-05-29T03:35:15;95679.38;;;13.99;70.58
63019;BME280;49105;46.046;10.760;2023-05-29T03:37:46;95676.91;;;14.03;69.89
63019;BME280;49105;46.046;10.760;2023-05-29T03:40:12;95672.56;;;13.93;70.55
63019;BME280;49105;46.046;10.760;2023-05-29T03:42:47;95670.94;;;13.78;70.18
63019;BME280;49105;46.046;10.760;2023-05-29T03:48:06;95678.22;;;13.73;70.97
63019;BME280;49105;46.046;10.760;2023-05-29T03:50:31;95686.91;;;13.78;70.09
63019;BME280;49105;46.046;10.760;2023-05-29T03:52:56;95686.41;;;13.76;70.65
63019;BME280;49105;46.046;10.760;2023-05-29T03:55:22;95690.03;;;13.67;70.44
63019;BME280;49105;46.046;10.760;2023-05-29T03:57:50;95695.06;;;13.68;70.64
63019;BME280;49105;46.046;10.760;2023-05-29T04:00:21;95690.03;;;13.67;70.46
63019;BME280;49105;46.046;10.760;2023-05-29T04:02:48;95690.72;;;13.72;70.50
63019;BME280;49105;46.046;10.760;2023-05-29T04:05:20;95695.97;;;13.77;70.52
63019;BME280;49105;46.046;10.760;2023-05-29T04:07:55;95701.19;;;13.82;70.23
63019;BME280;49105;46.046;10.760;2023-05-29T04:10:20;95696.88;;;13.86;69.94
63019;BME280;49105;46.046;10.760;2023-05-29T04:12:52;95707.03;;;13.84;70.17
63019;BME280;49105;46.046;10.760;2023-05-29T04:15:23;95701.28;;;13.77;70.52
63019;BME280;49105;46.046;10.760;2023-05-29T04:17:49;95703.13;;;13.63;70.37
63019;BME280;49105;46.046;10.760;2023-05-29T04:20:14;95706.88;;;13.62;70.34
63019;BME280;49105;46.046;10.760;2023-05-29T04:22:40;95710.94;;;13.73;70.71
63019;BME280;49105;46.046;10.760;2023-05-29T04:25:05;95721.00;;;13.76;70.53
63019;BME280;49105;46.046;10.760;2023-05-29T04:27:31;95721.47;;;13.78;69.97
63019;BME280;49105;46.046;10.760;2023-05-29T04:30:05;95726.66;;;13.88;69.95
63019;BME280;49105;46.046;10.760;2023-05-29T04:32:40;95730.31;;;13.93;69.82
63019;BME280;49105;46.046;10.760;2023-05-29T04:35:06;95727.66;;;13.93;70.39
63019;BME280;49105;46.046;10.760;2023-05-29T04:37:37;95729.66;;;14.01;69.97
63019;BME280;49105;46.046;10.760;2023-05-29T04:40:04;95721.72;;;14.28;70.24
63019;BME280;49105;46.046;10.760;2023-05-29T04:42:34;95720.72;;;14.57;69.87
63019;BME280;49105;46.046;10.760;2023-05-29T04:44:59;95722.97;;;14.77;69.52
63019;BME280;49105;46.046;10.760;2023-05-29T04:47:32;95724.97;;;14.85;69.51
63019;BME280;49105;46.046;10.760;2023-05-29T04:50:01;95726.72;;;14.90;68.84
63019;BME280;49105;46.046;10.760;2023-05-29T04:52:36;95730.28;;;14.85;68.37
63019;BME280;49105;46.046;10.760;2023-05-29T04:55:11;95726.13;;;14.79;68.34
63019;BME280;49105;46.046;10.760;2023-05-29T04:57:43;95730.09;;;14.82;67.85
63019;BME280;49105;46.046;10.760;2023-05-29T05:00:17;95728.09;;;14.87;68.37
63019;BME280;49105;46.046;10.760;2023-05-29T05:02:43;95729.69;;;15.02;68.06
63019;BME280;49105;46.046;10.760;2023-05-29T05:05:09;95722.56;;;15.11;67.42
63019;BME280;49105;46.046;10.760;2023-05-29T05:07:43;95725.88;;;15.17;67.17
63019;BME280;49105;46.046;10.760;2023-05-29T05:10:18;95727.47;;;15.18;67.12
63019;BME280;49105;46.046;10.760;2023-05-29T05:12:52;95724.50;;;15.20;66.55
63019;BME280;49105;46.046;10.760;2023-05-29T05:15:17;95723.91;;;15.23;67.05
63019;BME280;49105;46.046;10.760;2023-05-29T05:17:49;95724.00;;;15.31;66.73
63019;BME280;49105;46.046;10.760;2023-05-29T05:23:26;95721.69;;;15.38;66.31
63019;BME280;49105;46.046;10.760;2023-05-29T05:26:00;95720.81;;;15.43;66.55
63019;BME280;49105;46.046;10.760;2023-05-29T05:28:32;95721.94;;;15.51;66.45
63019;BME280;49105;46.046;10.760;2023-05-29T05:30:58;95724.63;;;15.51;66.15
63019;BME280;49105;46.046;10.760;2023-05-29T05:33:30;95714.25;;;15.49;66.70
63019;BME280;49105;46.046;10.760;2023-05-29T05:35:55;95707.59;;;15.60;66.42
63019;BME280;49105;46.046;10.760;2023-05-29T05:38:21;95705.41;;;15.76;66.36
63019;BME280;49105;46.046;10.760;2023-05-29T05:40:52;95694.28;;;15.83;66.08
63019;BME280;49105;46.046;10.760;2023-05-29T05:43:18;95695.94;;;15.93;65.89
63019;BME280;49105;46.046;10.760;2023-05-29T05:45:43;95696.78;;;16.02;65.70
63019;BME280;49105;46.046;10.760;2023-05-29T05:48:09;95698.22;;;16.08;65.51
63019;BME280;49105;46.046;10.760;2023-05-29T05:50:34;95701.56;;;16.13;65.36
63019;BME280;49105;46.046;10.760;2023-05-29T05:53:09;95700.13;;;16.16;65.08
63019;BME280;49105;46.046;10.760;2023-05-29T05:55:34;95698.31;;;16.25;64.98
63019;BME280;49105;46.046;10.760;2023-05-29T05:58:00;95694.28;;;16.36;64.69
63019;BME280;49105;46.046;10.760;2023-05-29T06:00:34;95694.63;;;16.44;64.52
63019;BME280;49105;46.046;10.760;2023-05-29T06:03:00;95693.56;;;16.53;64.46
63019;BME280;49105;46.046;10.760;2023-05-29T06:05:36;95692.34;;;16.59;64.40
63019;BME280;49105;46.046;10.760;2023-05-29T06:08:08;95694.72;;;16.70;64.12
63019;BME280;49105;46.046;10.760;2023-05-29T06:10:43;95697.31;;;16.83;63.62
63019;BME280;49105;46.046;10.760;2023-05-29T06:13:17;95690.88;;;16.84;63.45
63019;BME280;49105;46.046;10.760;2023-05-29T06:15:56;95687.09;;;16.85;63.75
63019;BME280;49105;46.046;10.760;2023-05-29T06:18:22;95696.41;;;16.97;63.49
63019;BME280;49105;46.046;10.760;2023-05-29T06:20:57;95683.66;;;16.94;63.18
63019;BME280;49105;46.046;10.760;2023-05-29T06:23:23;95693.72;;;16.88;63.64
63019;BME280;49105;46.046;10.760;2023-05-29T06:25:58;95683.59;;;16.76;63.76
63019;BME280;49105;46.046;10.760;2023-05-29T06:28:23;95682.41;;;16.91;63.46
63019;BME280;49105;46.046;10.760;2023-05-29T06:30:49;95675.78;;;16.89;63.34
63019;BME280;49105;46.046;10.760;2023-05-29T06:33:20;95672.94;;;16.85;63.59
63019;BME280;49105;46.046;10.760;2023-05-29T06:35:55;95673.28;;;17.01;63.59
63019;BME280;49105;46.046;10.760;2023-05-29T06:38:30;95671.09;;;17.11;62.57
63019;BME280;49105;46.046;10.760;2023-05-29T06:40:55;95673.47;;;17.04;62.59
63019;BME280;49105;46.046;10.760;2023-05-29T06:43:33;95657.72;;;17.11;62.95
63019;BME280;49105;46.046;10.760;2023-05-29T06:46:10;95668.91;;;17.40;62.53
63019;BME280;49105;46.046;10.760;2023-05-29T06:48:39;95670.00;;;17.47;61.95
63019;BME280;49105;46.046;10.760;2023-05-29T06:51:13;95670.00;;;17.47;62.15
63019;BME280;49105;46.046;10.760;2023-05-29T06:53:39;95665.16;;;17.49;61.87
63019;BME280;49105;46.046;10.760;2023-05-29T06:56:13;95664.66;;;17.56;61.72
63019;BME280;49105;46.046;10.760;2023-05-29T06:58:39;95658.06;;;17.62;61.52
63019;BME280;49105;46.046;10.760;2023-05-29T07:01:04;95664.97;;;17.63;61.58
63019;BME280;49105;46.046;10.760;2023-05-29T07:03:39;95662.28;;;17.63;62.00
63019;BME280;49105;46.046;10.760;2023-05-29T07:06:16;95661.94;;;17.73;61.28
63019;BME280;49105;46.046;10.760;2023-05-29T07:08:51;95655.81;;;17.73;61.37
63019;BME280;49105;46.046;10.760;2023-05-29T07:11:28;95650.47;;;17.81;61.58
63019;BME280;49105;46.046;10.760;2023-05-29T07:14:06;95651.25;;;17.91;60.93
63019;BME280;49105;46.046;10.760;2023-05-29T07:16:31;95657.56;;;17.95;60.90
63019;BME280;49105;46.046;10.760;2023-05-29T07:18:57;95649.34;;;18.00;60.90
63019;BME280;49105;46.046;10.760;2023-05-29T07:21:22;95652.78;;;18.09;60.57
63019;BME280;49105;46.046;10.760;2023-05-29T07:23:48;95645.38;;;18.15;59.89
63019;BME280;49105;46.046;10.760;2023-05-29T07:26:22;95638.91;;;18.16;60.22
63019;BME280;49105;46.046;10.760;2023-05-29T07:29:00;95640.19;;;18.01;59.42
63019;BME280;49105;46.046;10.760;2023-05-29T07:31:28;95638.47;;;17.96;59.60
63019;BME280;49105;46.046;10.760;2023-05-29T07:34:06;95633.56;;;18.16;59.60
63019;BME280;49105;46.046;10.760;2023-05-29T07:36:31;95633.16;;;18.34;59.02
63019;BME280;49105;46.046;10.760;2023-05-29T07:39:03;95624.44;;;18.46;58.46
63019;BME280;49105;46.046;10.760;2023-05-29T07:41:39;95620.53;;;18.44;58.39
63019;BME280;49105;46.046;10.760;2023-05-29T07:44:05;95617.94;;;18.56;58.60
63019;BME280;49105;46.046;10.760;2023-05-29T07:46:42;95618.66;;;18.74;57.88
63019;BME280;49105;46.046;10.760;2023-05-29T07:51:52;95622.25;;;18.99;57.29
63019;BME280;49105;46.046;10.760;2023-05-29T07:54:18;95618.53;;;19.12;56.75
63019;BME280;49105;46.046;10.760;2023-05-29T07:56:45;95615.00;;;19.20;56.37
63019;BME280;49105;46.046;10.760;2023-05-29T07:59:17;95618.16;;;19.22;56.17
63019;BME280;49105;46.046;10.760;2023-05-29T08:01:51;95610.56;;;19.24;55.89
63019;BME280;49105;46.046;10.760;2023-05-29T08:04:26;95608.56;;;19.33;55.77
63019;BME280;49105;46.046;10.760;2023-05-29T08:07:01;95598.38;;;19.48;55.39
63019;BME280;49105;46.046;10.760;2023-05-29T08:09:37;95610.25;;;19.59;54.85
63019;BME280;49105;46.046;10.760;2023-05-29T08:12:02;95599.78;;;19.66;54.96
63019;BME280;49105;46.046;10.760;2023-05-29T08:14:40;95597.34;;;19.73;54.63
63019;BME280;49105;46.046;10.760;2023-05-29T08:17:14;95591.53;;;19.71;54.56
63019;BME280;49105;46.046;10.760;2023-05-29T08:19:50;95589.41;;;19.77;54.83
63019;BME280;49105;46.046;10.760;2023-05-29T08:22:28;95584.59;;;19.82;54.64
63019;BME280;49105;46.046;10.760;2023-05-29T08:24:58;95593.44;;;19.83;54.94
63019;BME280;49105;46.046;10.760;2023-05-29T08:27:29;95586.09;;;19.92;54.99
63019;BME280;49105;46.046;10.760;2023-05-29T08:30:02;95592.59;;;20.03;54.66
63019;BME280;49105;46.046;10.760;2023-05-29T08:32:28;95580.53;;;20.10;54.75
63019;BME280;49105;46.046;10.760;2023-05-29T08:35:12;95584.00;;;20.22;54.94
63019;BME280;49105;46.046;10.760;2023-05-29T08:37:37;95574.59;;;20.28;54.66
63019;BME280;49105;46.046;10.760;2023-05-29T08:40:03;95576.84;;;20.39;54.55
63019;BME280;49105;46.046;10.760;2023-05-29T08:42:33;95581.66;;;20.33;54.65
63019;BME280;49105;46.046;10.760;2023-05-29T08:45:08;95577.72;;;20.18;54.80
63019;BME280;49105;46.046;10.760;2023-05-29T08:47:43;95567.63;;;20.03;54.92
63019;BME280;49105;46.046;10.760;2023-05-29T08:50:19;95566.06;;;19.90;54.88
63019;BME280;49105;46.046;10.760;2023-05-29T08:52:51;95559.44;;;19.87;55.23
63019;BME280;49105;46.046;10.760;2023-05-29T08:55:27;95554.66;;;20.05;54.98
63019;BME280;49105;46.046;10.760;2023-05-29T08:57:54;95557.78;;;20.31;53.68
63019;BME280;49105;46.046;10.760;2023-05-29T09:00:29;95550.53;;;20.56;53.44
63019;BME280;49105;46.046;10.760;2023-05-29T09:03:04;95553.88;;;20.78;51.72
63019;BME280;49105;46.046;10.760;2023-05-29T09:05:29;95553.13;;;20.93;50.74
63019;BME280;49105;46.046;10.760;2023-05-29T09:08:04;95551.06;;;21.15;50.13
63019;BME280;49105;46.046;10.760;2023-05-29T09:10:33;95550.47;;;21.34;50.23
63019;BME280;49105;46.046;10.760;2023-05-29T09:12:58;95551.09;;;21.43;50.15
63019;BME280;49105;46.046;10.760;2023-05-29T09:15:33;95553.88;;;21.46;49.72
63019;BME280;49105;46.046;10.760;2023-05-29T09:18:01;95551.03;;;21.55;49.81
63019;BME280;49105;46.046;10.760;2023-05-29T09:20:27;95540.34;;;21.59;48.66
63019;BME280;49105;46.046;10.760;2023-05-29T09:23:03;95540.97;;;21.68;48.27
63019;BME280;49105;46.046;10.760;2023-05-29T09:25:42;95537.22;;;21.72;48.67
63019;BME280;49105;46.046;10.760;2023-05-29T09:28:07;95531.41;;;21.70;47.89
63019;BME280;49105;46.046;10.760;2023-05-29T09:33:12;95539.06;;;21.68;48.51
63019;BME280;49105;46.046;10.760;2023-05-29T09:35:42;95537.06;;;21.65;48.91
63019;BME280;49105;46.046;10.760;2023-05-29T09:40:52;95529.75;;;21.66;49.10
63019;BME280;49105;46.046;10.760;2023-05-29T09:43:26;95525.84;;;21.63;48.92
63019;BME280;49105;46.046;10.760;2023-05-29T09:45:52;95529.69;;;21.62;48.76
63019;BME280;49105;46.046;10.760;2023-05-29T09:48:27;95532.16;;;21.55;48.31
63019;BME280;49105;46.046;10.760;2023-05-29T09:51:02;95539.22;;;21.44;48.04
63019;BME280;49105;46.046;10.760;2023-05-29T09:53:33;95532.94;;;21.40;47.46
63019;BME280;49105;46.046;10.760;2023-05-29T09:56:05;95526.94;;;21.46;46.58
63019;BME280;49105;46.046;10.760;2023-05-29T09:58:39;95526.94;;;21.46;49.19
63019;BME280;49105;46.046;10.760;2023-05-29T10:01:16;95542.50;;;21.25;48.41
63019;BME280;49105;46.046;10.760;2023-05-29T10:03:51;95538.81;;;21.17;49.01
63019;BME280;49105;46.046;10.760;2023-05-29T10:06:18;95536.59;;;21.19;49.97
63019;BME280;49105;46.046;10.760;2023-05-29T10:08:52;95535.56;;;21.24;50.27
63019;BME280;49105;46.046;10.760;2023-05-29T10:11:37;95542.75;;;21.32;50.10
63019;BME280;49105;46.046;10.760;2023-05-29T10:14:10;95536.94;;;21.46;49.79
63019;BME280;49105;46.046;10.760;2023-05-29T10:16:46;95530.19;;;21.52;49.97
63019;BME280;49105;46.046;10.760;2023-05-29T10:19:22;95528.28;;;21.68;49.87
63019;BME280;49105;46.046;10.760;2023-05-29T10:22:00;95523.53;;;21.93;49.80
63019;BME280;49105;46.046;10.760;2023-05-29T10:24:32;95525.50;;;22.12;49.26
63019;BME280;49105;46.046;10.760;2023-05-29T10:26:58;95528.31;;;22.32;49.13
63019;BME280;49105;46.046;10.760;2023-05-29T10:34:46;95527.41;;;22.78;48.14
63019;BME280;49105;46.046;10.760;2023-05-29T10:37:29;95514.25;;;22.93;48.25
63019;BME280;49105;46.046;10.760;2023-05-29T10:40:04;95514.91;;;23.06;47.86
63019;BME280;49105;46.046;10.760;2023-05-29T10:42:43;95503.03;;;23.10;47.36
63019;BME280;49105;46.046;10.760;2023-05-29T10:50:38;95503.59;;;23.00;46.94
63019;BME280;49105;46.046;10.760;2023-05-29T10:53:09;95501.88;;;23.11;46.98
63019;BME280;49105;46.046;10.760;2023-05-29T10:55:35;95499.88;;;23.27;46.81
63019;BME280;49105;46.046;10.760;2023-05-29T10:58:14;95506.34;;;23.42;46.86
63019;BME280;49105;46.046;10.760;2023-05-29T11:00:48;95499.88;;;23.47;46.38
63019;BME280;49105;46.046;10.760;2023-05-29T11:03:15;95492.97;;;23.49;46.41
63019;BME280;49105;46.046;10.760;2023-05-29T11:13:53;95487.53;;;23.07;45.78
63019;BME280;49105;46.046;10.760;2023-05-29T11:18:51;95481.84;;;23.12;46.52
63019;BME280;49105;46.046;10.760;2023-05-29T11:24:23;95470.78;;;23.17;46.69
63019;BME280;49105;46.046;10.760;2023-05-29T11:27:02;95477.28;;;23.16;46.71
63019;BME280;49105;46.046;10.760;2023-05-29T11:29:37;95476.09;;;23.14;46.92
63019;BME280;49105;46.046;10.760;2023-05-29T11:32:04;95482.13;;;23.07;46.69
63019;BME280;49105;46.046;10.760;2023-05-29T11:34:40;95485.13;;;23.02;46.75
63019;BME280;49105;46.046;10.760;2023-05-29T11:37:15;95488.91;;;22.97;47.03
63019;BME280;49105;46.046;10.760;2023-05-29T11:39:49;95494.41;;;22.85;46.99
63019;BME280;49105;46.046;10.760;2023-05-29T11:42:16;95491.56;;;22.78;47.17
63019;BME280;49105;46.046;10.760;2023-05-29T11:44:41;95493.47;;;22.77;47.43
63019;BME280;49105;46.046;10.760;2023-05-29T11:49:56;95489.16;;;22.38;50.70
63019;BME280;49105;46.046;10.760;2023-05-29T11:52:30;95497.72;;;22.24;51.62
63019;BME280;49105;46.046;10.760;2023-05-29T11:55:05;95498.69;;;22.16;52.16
63019;BME280;49105;46.046;10.760;2023-05-29T11:57:43;95496.75;;;22.16;52.66
63019;BME280;49105;46.046;10.760;2023-05-29T12:00:18;95498.06;;;22.22;52.81
63019;BME280;49105;46.046;10.760;2023-05-29T12:02:50;95496.66;;;22.28;53.06
63019;BME280;49105;46.046;10.760;2023-05-29T12:05:16;95486.91;;;22.40;53.02
63019;BME280;49105;46.046;10.760;2023-05-29T12:08:01;95496.34;;;22.49;53.29
63019;BME280;49105;46.046;10.760;2023-05-29T12:10:27;95498.75;;;22.54;53.25
63019;BME280;49105;46.046;10.760;2023-05-29T12:12:59;95498.84;;;22.58;53.59
63019;BME280;49105;46.046;10.760;2023-05-29T12:15:30;95507.78;;;22.62;53.45
63019;BME280;49105;46.046;10.760;2023-05-29T12:18:02;95502.84;;;22.64;53.41
63019;BME280;49105;46.046;10.760;2023-05-29T12:20:27;95503.78;;;22.72;53.10
63019;BME280;49105;46.046;10.760;2023-05-29T12:23:02;95504.75;;;22.83;52.71
63019;BME280;49105;46.046;10.760;2023-05-29T12:25:36;95508.41;;;22.91;52.23
63019;BME280;49105;46.046;10.760;2023-05-29T12:28:08;95507.88;;;23.01;51.90
63019;BME280;49105;46.046;10.760;2023-05-29T12:30:37;95509.84;;;23.04;51.30
63019;BME280;49105;46.046;10.760;2023-05-29T12:33:24;95516.03;;;23.05;49.95
63019;BME280;49105;46.046;10.760;2023-05-29T12:36:03;95519.72;;;22.96;48.01
63019;BME280;49105;46.046;10.760;2023-05-29T12:39:04;95516.34;;;22.84;47.80
63019;BME280;49105;46.046;10.760;2023-05-29T12:43:48;95512.19;;;23.06;48.12
63019;BME280;49105;46.046;10.760;2023-05-29T12:46:23;95508.13;;;23.15;48.05
63019;BME280;49105;46.046;10.760;2023-05-29T12:48:54;95504.41;;;23.43;47.83
63019;BME280;49105;46.046;10.760;2023-05-29T12:51:29;95501.88;;;23.73;47.69
63019;BME280;49105;46.046;10.760;2023-05-29T12:53:55;95495.34;;;23.97;47.49
63019;BME280;49105;46.046;10.760;2023-05-29T12:56:25;95494.44;;;24.12;47.52
63019;BME280;49105;46.046;10.760;2023-05-29T13:01:36;95487.75;;;24.06;47.27
63019;BME280;49105;46.046;10.760;2023-05-29T13:04:09;95487.81;;;24.10;47.19
63019;BME280;49105;46.046;10.760;2023-05-29T13:06:35;95490.06;;;24.04;46.55
63019;BME280;49105;46.046;10.760;2023-05-29T13:09:06;95496.50;;;23.96;46.37
63019;BME280;49105;46.046;10.760;2023-05-29T13:11:33;95500.94;;;23.85;46.09
63019;BME280;49105;46.046;10.760;2023-05-29T13:13:59;95496.06;;;23.71;46.06
63019;BME280;49105;46.046;10.760;2023-05-29T13:16:34;95491.75;;;23.66;45.93
63019;BME280;49105;46.046;10.760;2023-05-29T13:19:10;95488.31;;;23.69;45.97
63019;BME280;49105;46.046;10.760;2023-05-29T13:24:38;95489.56;;;23.98;45.76
63019;BME280;49105;46.046;10.760;2023-05-29T13:27:03;95484.59;;;24.00;44.97
63019;BME280;49105;46.046;10.760;2023-05-29T13:29:36;95481.28;;;23.88;44.82
63019;BME280;49105;46.046;10.760;2023-05-29T13:32:02;95478.28;;;23.93;45.30
63019;BME280;49105;46.046;10.760;2023-05-29T13:34:36;95474.88;;;23.96;44.72
63019;BME280;49105;46.046;10.760;2023-05-29T13:37:08;95492.56;;;24.16;44.74
63019;BME280;49105;46.046;10.760;2023-05-29T13:39:33;95494.28;;;24.28;43.09
63019;BME280;49105;46.046;10.760;2023-05-29T13:41:58;95485.69;;;24.22;42.70
63019;BME280;49105;46.046;10.760;2023-05-29T13:44:34;95479.75;;;24.13;43.21
63019;BME280;49105;46.046;10.760;2023-05-29T13:47:09;95479.63;;;24.06;43.39
63019;BME280;49105;46.046;10.760;2023-05-29T13:49:38;95491.47;;;23.98;43.29
63019;BME280;49105;46.046;10.760;2023-05-29T13:52:13;95493.25;;;23.87;43.25
63019;BME280;49105;46.046;10.760;2023-05-29T13:54:45;95494.56;;;23.73;43.68
63019;BME280;49105;46.046;10.760;2023-05-29T13:57:22;95495.47;;;23.62;43.90
63019;BME280;49105;46.046;10.760;2023-05-29T13:59:48;95489.78;;;23.44;43.56
63019;BME280;49105;46.046;10.760;2023-05-29T14:02:22;95494.56;;;23.31;43.55
63019;BME280;49105;46.046;10.760;2023-05-29T14:04:47;95488.31;;;23.08;43.22
63019;BME280;49105;46.046;10.760;2023-05-29T14:07:13;95489.78;;;22.86;43.46
63019;BME280;49105;46.046;10.760;2023-05-29T14:09:44;95490.53;;;22.67;43.91
63019;BME280;49105;46.046;10.760;2023-05-29T14:12:10;95490.19;;;22.49;43.94
63019;BME280;49105;46.046;10.760;2023-05-29T14:14:35;95497.13;;;22.15;43.88
63019;BME280;49105;46.046;10.760;2023-05-29T14:17:01;95506.66;;;21.80;44.84